createdAt,value
2023-02-24T00:00:32.322Z,78.60
2023-02-24T00:03:05.999Z,78.39
2023-02-24T00:05:39.227Z,78.21
2023-02-24T00:08:07.637Z,78.19
2023-02-24T00:10:37.635Z,78.41
2023-02-24T00:13:06.114Z,78.11
2023-02-24T00:15:34.358Z,77.72
2023-02-24T00:18:07.226Z,77.56
2023-02-24T00:20:37.428Z,77.71
2023-02-24T00:23:05.570Z,77.74
2023-02-24T00:25:33.801Z,77.44
2023-02-24T00:28:02.498Z,77.56
2023-02-24T00:30:33.225Z,77.17
2023-02-24T00:33:03.478Z,76.98
2023-02-24T00:35:32.587Z,77.31
2023-02-24T00:38:02.069Z,77.28
2023-02-24T00:40:30.852Z,77.11
2023-02-24T00:43:00.806Z,77.37
2023-02-24T00:45:31.030Z,77.14
2023-02-24T00:47:59.370Z,77.10
2023-02-24T00:50:27.534Z,77.15
2023-02-24T00:52:55.719Z,76.60
2023-02-24T00:55:27.489Z,76.67
2023-02-24T00:57:56.339Z,76.70
2023-02-24T01:00:26.271Z,76.84
2023-02-24T01:02:54.439Z,77.40
2023-02-24T01:05:22.518Z,77.06
2023-02-24T01:07:50.606Z,77.11
2023-02-24T01:10:20.915Z,77.20
2023-02-24T01:12:54.082Z,77.70
2023-02-24T01:15:24.151Z,77.14
2023-02-24T01:17:52.396Z,77.25
2023-02-24T01:20:20.781Z,77.12
2023-02-24T01:22:51.054Z,77.67
2023-02-24T01:25:20.531Z,77.09
2023-02-24T01:27:50.693Z,77.50
2023-02-24T01:30:18.990Z,78.67
2023-02-24T01:32:48.328Z,79.08
2023-02-24T01:35:17.856Z,81.33
2023-02-24T01:37:46.433Z,81.44
2023-02-24T01:40:21.008Z,81.00
2023-02-24T01:42:51.768Z,79.86
2023-02-24T01:45:25.198Z,78.43
2023-02-24T01:47:57.474Z,78.21
2023-02-24T01:50:26.462Z,78.34
2023-02-24T01:52:58.948Z,77.96
2023-02-24T01:55:32.106Z,77.43
2023-02-24T01:58:06.026Z,77.58
2023-02-24T02:00:38.362Z,77.34
2023-02-24T02:03:17.291Z,77.00
2023-02-24T02:05:48.675Z,77.43
2023-02-24T02:08:19.617Z,77.35
2023-02-24T02:10:49.368Z,77.80
2023-02-24T02:13:21.578Z,77.87
2023-02-24T02:16:06.984Z,77.56
2023-02-24T02:18:48.807Z,76.59
2023-02-24T02:21:45.033Z,77.03
2023-02-24T02:24:48.492Z,77.12
2023-02-24T02:27:29.479Z,78.52
2023-02-24T02:30:43.957Z,77.81
2023-02-24T02:33:47.984Z,76.88
2023-02-24T02:36:23.922Z,76.69
2023-02-24T02:38:58.602Z,77.08
2023-02-24T02:41:30.490Z,77.10
2023-02-24T02:44:07.562Z,76.67
2023-02-24T02:46:42.856Z,76.43
2023-02-24T02:49:20.766Z,76.34
2023-02-24T02:51:52.857Z,76.48
2023-02-24T02:54:28.279Z,76.86
2023-02-24T02:57:02.501Z,76.52
2023-02-24T02:59:33.993Z,76.52
2023-02-24T03:02:11.852Z,77.39
2023-02-24T03:04:47.249Z,78.26
2023-02-24T03:07:18.050Z,79.34
2023-02-24T03:09:51.024Z,78.56
2023-02-24T03:12:23.604Z,78.83
2023-02-24T03:14:57.609Z,78.25
2023-02-24T03:17:28.035Z,77.72
2023-02-24T03:20:16.335Z,77.14
2023-02-24T03:22:49.977Z,77.35
2023-02-24T03:25:24.704Z,77.46
2023-02-24T03:28:01.262Z,77.50
2023-02-24T03:30:36.686Z,77.28
2023-02-24T03:33:11.137Z,77.84
2023-02-24T03:35:42.630Z,78.24
2023-02-24T03:38:11.919Z,78.72
2023-02-24T03:40:43.472Z,79.40
2023-02-24T03:43:22.271Z,79.70
2023-02-24T03:45:51.129Z,79.83
2023-02-24T03:48:20.196Z,79.46
2023-02-24T03:50:49.737Z,80.78
2023-02-24T03:53:42.149Z,79.33
2023-02-24T03:56:24.272Z,80.06
2023-02-24T03:59:05.720Z,81.54
2023-02-24T04:01:43.244Z,81.72
2023-02-24T04:04:19.269Z,81.86
2023-02-24T04:07:01.314Z,82.09
2023-02-24T04:09:39.158Z,83.06
2023-02-24T04:12:18.837Z,84.09
2023-02-24T04:14:57.030Z,84.00
2023-02-24T04:17:30.888Z,83.92
2023-02-24T04:20:09.261Z,84.32
2023-02-24T04:22:42.915Z,85.00
2023-02-24T04:25:13.866Z,85.44
2023-02-24T04:27:45.324Z,85.80
2023-02-24T04:30:18.019Z,87.09
2023-02-24T04:32:46.417Z,87.86
2023-02-24T04:35:17.278Z,87.70
2023-02-24T04:37:52.104Z,87.49
2023-02-24T04:40:23.115Z,87.22
2023-02-24T04:42:52.637Z,87.86
2023-02-24T04:45:22.843Z,88.27
2023-02-24T04:47:56.282Z,89.16
2023-02-24T04:50:26.812Z,89.33
2023-02-24T04:52:57.786Z,89.32
2023-02-24T04:55:29.597Z,89.31
2023-02-24T04:57:58.345Z,90.08
2023-02-24T05:00:33.499Z,90.16
2023-02-24T05:03:06.047Z,89.32
2023-02-24T05:05:34.343Z,90.02
2023-02-24T05:08:06.534Z,90.52
2023-02-24T05:10:39.990Z,90.17
2023-02-24T05:13:09.314Z,89.31
2023-02-24T05:15:44.746Z,89.77
2023-02-24T05:18:17.216Z,88.57
2023-02-24T05:21:06.034Z,88.78
2023-02-24T05:23:39.412Z,88.98
2023-02-24T05:26:09.547Z,88.78
2023-02-24T05:28:38.736Z,88.81
2023-02-24T05:31:08.774Z,89.19
2023-02-24T05:33:38.296Z,89.49
2023-02-24T05:36:08.695Z,89.81
2023-02-24T05:38:39.094Z,90.48
2023-02-24T05:41:08.356Z,90.47
2023-02-24T05:43:39.408Z,89.91
2023-02-24T05:46:07.502Z,90.82
2023-02-24T05:48:36.123Z,91.16
2023-02-24T05:51:08.023Z,91.70
2023-02-24T05:53:36.623Z,91.54
2023-02-24T05:56:06.412Z,90.64
2023-02-24T05:58:34.552Z,90.38
2023-02-24T06:01:09.924Z,90.64
2023-02-24T06:03:38.146Z,90.55
2023-02-24T06:06:09.130Z,91.73
2023-02-24T06:08:42.435Z,91.32
2023-02-24T06:11:13.115Z,91.98
2023-02-24T06:13:42.273Z,91.31
2023-02-24T06:16:13.196Z,91.16
2023-02-24T06:18:41.960Z,92.21
2023-02-24T06:21:12.576Z,92.10
2023-02-24T06:23:41.555Z,91.42
2023-02-24T06:26:13.211Z,91.11
2023-02-24T06:28:43.356Z,90.55
2023-02-24T06:31:11.687Z,90.04
2023-02-24T06:33:40.314Z,89.99
2023-02-24T06:36:09.275Z,89.89
2023-02-24T06:38:40.075Z,89.50
2023-02-24T06:41:11.844Z,90.67
2023-02-24T06:43:43.399Z,90.71
2023-02-24T06:46:13.264Z,90.26
2023-02-24T06:48:41.808Z,89.91
2023-02-24T06:51:13.763Z,89.88
2023-02-24T06:53:44.633Z,89.77
2023-02-24T06:56:15.934Z,89.76
2023-02-24T06:58:47.621Z,88.76
2023-02-24T07:01:18.439Z,89.51
2023-02-24T07:04:03.442Z,89.33
2023-02-24T07:06:34.542Z,88.53
2023-02-24T07:09:07.179Z,88.41
2023-02-24T07:11:36.334Z,88.17
2023-02-24T07:14:06.631Z,89.13
2023-02-24T07:16:35.671Z,89.07
2023-02-24T07:19:09.785Z,88.16
2023-02-24T07:21:40.557Z,88.33
2023-02-24T07:24:09.595Z,88.04
2023-02-24T07:26:41.887Z,87.16
2023-02-24T07:29:13.166Z,88.02
2023-02-24T07:31:43.129Z,86.96
2023-02-24T07:34:15.157Z,86.90
2023-02-24T07:36:49.655Z,86.69
2023-02-24T07:39:19.024Z,86.19
2023-02-24T07:41:49.689Z,87.02
2023-02-24T07:44:20.826Z,86.84
2023-02-24T07:46:50.128Z,86.63
2023-02-24T07:49:20.891Z,87.76
2023-02-24T07:51:52.648Z,87.66
2023-02-24T07:54:22.302Z,86.99
2023-02-24T07:56:57.775Z,86.62
2023-02-24T07:59:29.014Z,87.25
2023-02-24T08:01:57.773Z,86.64
2023-02-24T08:04:27.865Z,85.60
2023-02-24T08:06:57.566Z,85.66
2023-02-24T08:09:45.076Z,86.20
2023-02-24T08:12:17.957Z,85.14
2023-02-24T08:14:51.224Z,84.76
2023-02-24T08:17:21.437Z,84.40
2023-02-24T08:19:51.096Z,84.71
2023-02-24T08:22:24.265Z,83.76
2023-02-24T08:24:54.130Z,83.30
2023-02-24T08:27:24.995Z,82.74
2023-02-24T08:29:59.964Z,83.37
2023-02-24T08:32:34.098Z,83.53
2023-02-24T08:35:04.921Z,83.96
2023-02-24T08:37:40.661Z,83.44
2023-02-24T08:40:32.424Z,83.03
2023-02-24T08:43:16.084Z,81.88
2023-02-24T08:45:50.441Z,82.19
2023-02-24T08:48:32.313Z,80.85
2023-02-24T08:51:04.680Z,80.90
2023-02-24T08:53:33.270Z,82.13
2023-02-24T08:56:09.684Z,81.68
2023-02-24T08:58:41.128Z,80.21
2023-02-24T09:01:19.872Z,81.43
2023-02-24T09:03:52.397Z,83.02
2023-02-24T09:06:25.540Z,83.27
2023-02-24T09:09:17.512Z,83.96
2023-02-24T09:11:47.824Z,82.23
2023-02-24T09:14:26.430Z,81.52
2023-02-24T09:17:06.971Z,80.61
2023-02-24T09:19:58.494Z,81.47
2023-02-24T09:22:41.009Z,80.80
2023-02-24T09:25:21.771Z,80.67
2023-02-24T09:27:56.068Z,80.42
2023-02-24T09:30:51.137Z,79.35
2023-02-24T09:33:23.849Z,79.83
2023-02-24T09:36:13.846Z,80.25
2023-02-24T09:39:02.002Z,78.55
2023-02-24T09:41:45.324Z,77.87
2023-02-24T09:44:18.597Z,77.13
2023-02-24T09:46:55.791Z,77.56
2023-02-24T09:49:40.042Z,78.90
2023-02-24T09:52:17.167Z,77.79
2023-02-24T09:55:06.198Z,79.41
2023-02-24T09:58:01.833Z,79.22
2023-02-24T10:00:33.720Z,79.21
2023-02-24T10:03:19.734Z,79.25
2023-02-24T10:05:59.172Z,80.95
2023-02-24T10:08:38.315Z,81.56
2023-02-24T10:11:09.794Z,82.23
2023-02-24T10:13:43.595Z,83.86
2023-02-24T10:16:15.689Z,85.54
2023-02-24T10:18:48.538Z,85.81
2023-02-24T10:21:34.987Z,87.13
2023-02-24T10:24:14.466Z,88.23
2023-02-24T10:27:00.038Z,87.92
2023-02-24T10:29:43.385Z,86.47
2023-02-24T10:32:24.188Z,86.79
2023-02-24T10:34:53.285Z,87.54
2023-02-24T10:37:29.050Z,86.01
2023-02-24T10:39:59.442Z,87.17
2023-02-24T10:42:31.857Z,88.30
2023-02-24T10:45:18.015Z,86.36
2023-02-24T10:47:56.821Z,86.48
2023-02-24T10:50:30.381Z,86.40
2023-02-24T10:53:26.474Z,85.53
2023-02-24T10:56:15.206Z,85.84
2023-02-24T10:58:56.913Z,84.26
2023-02-24T11:01:45.075Z,84.02
2023-02-24T11:04:33.588Z,83.09
2023-02-24T11:07:09.844Z,82.82
2023-02-24T11:09:52.397Z,82.28
2023-02-24T11:12:41.014Z,82.74
2023-02-24T11:15:46.848Z,82.47
2023-02-24T11:18:18.805Z,81.56
2023-02-24T11:20:51.554Z,81.90
2023-02-24T11:23:23.649Z,79.67
2023-02-24T11:25:59.289Z,79.27
2023-02-24T11:29:06.718Z,80.45
2023-02-24T11:32:00.352Z,81.22
2023-02-24T11:34:37.106Z,79.44
2023-02-24T11:37:17.765Z,78.35
2023-02-24T11:39:56.482Z,79.03
2023-02-24T11:42:28.262Z,79.52
2023-02-24T11:45:02.968Z,77.29
2023-02-24T11:47:37.864Z,77.03
2023-02-24T11:50:19.796Z,77.20
2023-02-24T11:52:50.749Z,77.47
2023-02-24T11:55:28.319Z,76.48
2023-02-24T11:58:01.495Z,74.95
2023-02-24T12:00:33.966Z,73.31
2023-02-24T12:03:07.918Z,74.52
2023-02-24T12:05:42.197Z,75.44
2023-02-24T12:08:16.320Z,75.87
2023-02-24T12:10:49.993Z,74.02
2023-02-24T12:13:28.248Z,74.06
2023-02-24T12:16:04.112Z,72.89
2023-02-24T12:18:36.252Z,73.34
2023-02-24T12:21:08.619Z,76.54
2023-02-24T12:23:39.453Z,77.63
2023-02-24T12:26:17.823Z,78.40
2023-02-24T12:29:18.775Z,77.07
2023-02-24T12:31:57.470Z,77.97
2023-02-24T12:34:43.058Z,79.31
2023-02-24T12:37:50.708Z,80.16
2023-02-24T12:40:31.377Z,77.75
2023-02-24T12:43:13.738Z,78.39
2023-02-24T12:45:52.260Z,77.88
2023-02-24T12:48:39.590Z,77.53
2023-02-24T12:51:14.383Z,78.64
2023-02-24T12:53:47.763Z,77.66
2023-02-24T12:56:22.502Z,77.30
2023-02-24T12:58:53.888Z,76.75
2023-02-24T13:01:30.113Z,76.98
2023-02-24T13:04:23.290Z,74.86
2023-02-24T13:07:04.074Z,76.31
2023-02-24T13:09:38.086Z,78.97
2023-02-24T13:12:18.137Z,79.46
2023-02-24T13:14:47.992Z,82.15
2023-02-24T13:17:23.407Z,81.25
2023-02-24T13:19:53.405Z,82.19
2023-02-24T13:22:25.837Z,83.80
2023-02-24T13:25:16.271Z,85.39
2023-02-24T13:27:45.567Z,84.64
2023-02-24T13:30:37.267Z,84.94
2023-02-24T13:33:21.629Z,84.48
2023-02-24T13:35:51.408Z,84.80
2023-02-24T13:38:27.026Z,84.20
2023-02-24T13:40:55.390Z,81.96
2023-02-24T13:43:28.282Z,80.57
2023-02-24T13:46:00.146Z,79.13
2023-02-24T13:48:56.744Z,79.29
2023-02-24T13:52:03.492Z,76.49
2023-02-24T13:54:56.750Z,76.19
2023-02-24T13:57:48.228Z,75.52
2023-02-24T14:00:27.176Z,74.74
2023-02-24T14:02:55.943Z,75.46
2023-02-24T14:05:29.613Z,75.60
2023-02-24T14:07:58.159Z,76.50
2023-02-24T14:10:28.747Z,76.68
2023-02-24T14:13:05.218Z,76.28
2023-02-24T14:15:34.633Z,75.68
2023-02-24T14:18:05.936Z,76.16
2023-02-24T14:20:37.626Z,76.98
2023-02-24T14:23:22.205Z,76.78
2023-02-24T14:25:55.908Z,76.17
2023-02-24T14:28:26.163Z,74.52
2023-02-24T14:30:58.215Z,74.31
2023-02-24T14:33:30.561Z,73.75
2023-02-24T14:36:01.262Z,76.12
2023-02-24T14:38:32.000Z,74.38
2023-02-24T14:41:00.480Z,72.90
2023-02-24T14:43:29.633Z,73.32
2023-02-24T14:45:58.785Z,72.82
2023-02-24T14:48:28.710Z,73.04
2023-02-24T14:51:03.063Z,73.51
2023-02-24T14:53:35.070Z,72.37
2023-02-24T14:56:06.120Z,72.27
2023-02-24T14:58:39.978Z,72.86
2023-02-24T15:01:20.761Z,71.74
2023-02-24T15:03:52.541Z,72.07
2023-02-24T15:06:26.040Z,72.19
2023-02-24T15:08:59.582Z,70.68
2023-02-24T15:11:30.007Z,70.80
2023-02-24T15:14:01.031Z,72.14
2023-02-24T15:16:34.548Z,71.96
2023-02-24T15:19:03.275Z,72.03
2023-02-24T15:21:33.978Z,71.69
2023-02-24T15:24:03.574Z,71.68
2023-02-24T15:26:33.805Z,72.74
2023-02-24T15:29:03.996Z,74.46
2023-02-24T15:31:32.257Z,79.17
2023-02-24T15:34:02.176Z,81.10
2023-02-24T15:36:35.113Z,87.30
2023-02-24T15:39:06.636Z,90.92
2023-02-24T15:41:42.069Z,92.53
2023-02-24T15:44:29.024Z,94.71
2023-02-24T15:46:57.943Z,96.22
2023-02-24T15:49:26.566Z,97.68
2023-02-24T15:51:59.734Z,99.87
2023-02-24T15:54:32.015Z,100.00
2023-02-24T15:57:01.628Z,100.00
2023-02-24T15:59:30.531Z,100.00
2023-02-24T16:01:58.713Z,100.00
2023-02-24T16:04:27.906Z,99.52
2023-02-24T16:06:58.974Z,97.94
2023-02-24T16:09:33.617Z,96.15
2023-02-24T16:12:03.617Z,95.15
2023-02-24T16:14:32.308Z,93.36
2023-02-24T16:17:02.274Z,92.75
2023-02-24T16:19:30.458Z,91.83
2023-02-24T16:21:59.992Z,90.88
2023-02-24T16:24:28.025Z,90.90
2023-02-24T16:26:56.165Z,91.09
2023-02-24T16:29:24.249Z,91.11
2023-02-24T16:31:52.615Z,92.13
2023-02-24T16:34:20.804Z,91.46
2023-02-24T16:36:49.592Z,92.77
2023-02-24T16:39:19.083Z,90.24
2023-02-24T16:41:47.374Z,90.29
2023-02-24T16:44:15.466Z,91.77
2023-02-24T16:46:45.579Z,90.71
2023-02-24T16:49:19.068Z,91.02
2023-02-24T16:51:47.481Z,90.02
2023-02-24T16:54:15.479Z,91.02
2023-02-24T16:56:45.399Z,90.51
2023-02-24T16:59:13.607Z,89.88
2023-02-24T17:01:41.795Z,89.50
2023-02-24T17:04:11.224Z,90.44
2023-02-24T17:06:39.276Z,90.22
2023-02-24T17:09:07.454Z,91.19
2023-02-24T17:11:35.712Z,90.76
2023-02-24T17:14:05.121Z,90.42
2023-02-24T17:16:33.344Z,90.62
2023-02-24T17:19:01.474Z,90.49
2023-02-24T17:21:29.526Z,90.09
2023-02-24T17:23:58.318Z,89.79
2023-02-24T17:26:26.445Z,89.77
2023-02-24T17:28:54.538Z,90.39
2023-02-24T17:31:24.198Z,90.46
2023-02-24T17:33:52.310Z,90.15
2023-02-24T17:36:20.579Z,90.00
2023-02-24T17:38:49.048Z,89.38
2023-02-24T17:41:17.069Z,89.58
2023-02-24T17:43:45.127Z,89.31
2023-02-24T17:46:13.254Z,89.28
2023-02-24T17:48:42.792Z,89.46
2023-02-24T17:51:15.125Z,89.17
2023-02-24T17:53:43.464Z,89.09
2023-02-24T17:56:12.125Z,88.99
2023-02-24T17:58:40.582Z,88.98
2023-02-24T18:01:09.038Z,89.04
2023-02-24T18:03:38.722Z,88.61
2023-02-24T18:06:10.310Z,88.12
2023-02-24T18:08:39.965Z,88.40
2023-02-24T18:11:10.084Z,88.66
2023-02-24T18:13:38.238Z,88.61
2023-02-24T18:16:10.587Z,88.52
2023-02-24T18:18:39.153Z,88.51
2023-02-24T18:21:09.474Z,88.51
2023-02-24T18:23:40.425Z,88.39
2023-02-24T18:26:12.544Z,88.31
2023-02-24T18:28:41.000Z,88.60
2023-02-24T18:31:14.599Z,87.85
2023-02-24T18:33:42.868Z,87.88
2023-02-24T18:36:13.670Z,87.43
2023-02-24T18:38:41.942Z,87.58
2023-02-24T18:41:12.484Z,87.56
2023-02-24T18:43:40.882Z,87.79
2023-02-24T18:46:12.197Z,87.82
2023-02-24T18:48:41.328Z,87.75
2023-02-24T18:51:09.522Z,87.42
2023-02-24T18:53:39.523Z,88.27
2023-02-24T18:56:08.897Z,88.28
2023-02-24T18:58:38.677Z,88.47
2023-02-24T19:01:13.245Z,87.96
2023-02-24T19:03:41.680Z,87.91
2023-02-24T19:06:10.136Z,87.71
2023-02-24T19:08:40.545Z,87.81
2023-02-24T19:11:10.757Z,87.53
2023-02-24T19:13:39.019Z,86.77
2023-02-24T19:16:11.165Z,86.70
2023-02-24T19:18:39.730Z,88.48
2023-02-24T19:21:09.468Z,92.22
2023-02-24T19:23:39.954Z,90.04
2023-02-24T19:26:16.597Z,90.23
2023-02-24T19:28:44.861Z,90.62
2023-02-24T19:31:14.708Z,89.48
2023-02-24T19:33:43.126Z,89.63
2023-02-24T19:36:12.213Z,88.59
2023-02-24T19:38:43.176Z,88.85
2023-02-24T19:41:11.470Z,87.89
2023-02-24T19:43:41.822Z,86.76
2023-02-24T19:46:12.977Z,86.16
2023-02-24T19:48:41.849Z,86.05
2023-02-24T19:51:12.016Z,85.35
2023-02-24T19:53:40.214Z,85.52
2023-02-24T19:56:09.744Z,85.23
2023-02-24T19:58:38.402Z,85.16
2023-02-24T20:01:09.393Z,85.46
2023-02-24T20:03:37.755Z,85.75
2023-02-24T20:06:08.125Z,84.95
2023-02-24T20:08:36.787Z,84.98
2023-02-24T20:11:06.494Z,85.05
2023-02-24T20:13:36.299Z,84.66
2023-02-24T20:16:06.148Z,83.96
2023-02-24T20:18:34.308Z,83.90
2023-02-24T20:21:03.091Z,83.63
2023-02-24T20:23:32.160Z,83.67
2023-02-24T20:26:01.295Z,83.95
2023-02-24T20:28:30.553Z,83.38
2023-02-24T20:31:06.615Z,83.02
2023-02-24T20:33:34.889Z,82.57
2023-02-24T20:36:07.941Z,82.94
2023-02-24T20:38:36.036Z,83.23
2023-02-24T20:41:04.928Z,82.96
2023-02-24T20:43:33.733Z,82.46
2023-02-24T20:46:11.941Z,82.44
2023-02-24T20:48:40.265Z,82.45
2023-02-24T20:51:09.311Z,82.65
2023-02-24T20:53:54.744Z,82.48
2023-02-24T20:56:25.497Z,82.33
2023-02-24T20:58:59.938Z,83.26
2023-02-24T21:01:30.865Z,82.88
2023-02-24T21:03:59.043Z,83.09
2023-02-24T21:06:28.221Z,83.10
2023-02-24T21:08:56.616Z,82.98
2023-02-24T21:11:25.580Z,83.96
2023-02-24T21:13:54.721Z,84.03
2023-02-24T21:16:23.486Z,84.21
2023-02-24T21:18:53.335Z,84.75
2023-02-24T21:21:22.067Z,85.94
2023-02-24T21:23:50.609Z,85.54
2023-02-24T21:26:19.515Z,84.61
2023-02-24T21:28:47.677Z,84.62
2023-02-24T21:31:20.422Z,84.87
2023-02-24T21:33:52.931Z,84.32
2023-02-24T21:36:24.470Z,84.45
2023-02-24T21:38:53.231Z,84.54
2023-02-24T21:41:21.735Z,84.12
2023-02-24T21:43:54.923Z,84.23
2023-02-24T21:46:28.468Z,83.97
2023-02-24T21:48:59.340Z,84.27
2023-02-24T21:51:29.323Z,83.99
2023-02-24T21:53:58.453Z,83.75
2023-02-24T21:56:28.467Z,83.37
2023-02-24T21:58:59.684Z,83.45
2023-02-24T22:01:29.552Z,83.41
2023-02-24T22:04:01.393Z,83.40
2023-02-24T22:06:32.087Z,83.40
2023-02-24T22:09:01.612Z,83.85
2023-02-24T22:11:32.172Z,83.90
2023-02-24T22:14:00.468Z,83.36
2023-02-24T22:16:29.525Z,82.38
2023-02-24T22:18:59.027Z,82.27
2023-02-24T22:21:29.110Z,81.82
2023-02-24T22:24:04.824Z,82.07
2023-02-24T22:26:33.435Z,82.12
2023-02-24T22:29:02.585Z,82.18
2023-02-24T22:31:33.071Z,81.56
2023-02-24T22:34:02.578Z,81.58
2023-02-24T22:36:33.518Z,81.72
2023-02-24T22:39:02.936Z,82.12
2023-02-24T22:41:33.532Z,83.73
2023-02-24T22:44:03.071Z,83.63
2023-02-24T22:46:32.959Z,84.25
2023-02-24T22:49:03.146Z,85.36
2023-02-24T22:51:31.712Z,85.76
2023-02-24T22:53:59.753Z,88.00
2023-02-24T22:56:30.067Z,88.52
2023-02-24T22:58:58.848Z,86.48
2023-02-24T23:01:29.290Z,85.89
2023-02-24T23:03:59.999Z,86.74
2023-02-24T23:06:30.189Z,87.02
2023-02-24T23:09:00.223Z,88.26
2023-02-24T23:11:30.722Z,88.53
2023-02-24T23:14:00.635Z,86.95
2023-02-24T23:16:31.934Z,85.87
2023-02-24T23:19:01.864Z,87.10
2023-02-24T23:21:35.058Z,85.54
2023-02-24T23:24:04.153Z,85.47
2023-02-24T23:26:33.347Z,86.69
2023-02-24T23:29:01.424Z,87.82
2023-02-24T23:31:30.113Z,87.48
2023-02-24T23:33:58.241Z,87.48
2023-02-24T23:36:27.271Z,88.44
2023-02-24T23:38:58.014Z,88.70
2023-02-24T23:41:26.371Z,89.57
2023-02-24T23:43:54.642Z,89.73
2023-02-24T23:46:23.290Z,90.39
2023-02-24T23:48:57.376Z,91.78
2023-02-24T23:51:27.984Z,91.75
2023-02-24T23:54:00.639Z,92.36
2023-02-24T23:56:30.040Z,92.58
2023-02-24T23:58:59.612Z,90.86
